Time;durP1;ratioP1;P1;durP2;ratioP2;P2;SDS_P1;SDS_P2;PMS_P1;PMS_P2;Temp;Humidity;BMP_temperature;BMP_pressure;BME280_temperature;BME280_humidity;BME280_pressure;Samples;Min_cycle;Max_cycle;Signal;HPM_P1;HPM_P2
2021/01/25 00:02:42;;;;;;;20.97;12.53;;;1.30;99.90;;;-0.51;100.00;97345.78;5049627;28;20303;-75
2021/01/25 00:05:27;;;;;;;21.43;12.97;;;1.40;99.90;;;-0.51;100.00;97557.31;5058176;28;20206;-76
2021/01/25 00:08:13;;;;;;;19.63;11.63;;;1.40;99.90;;;-0.51;100.00;97566.66;5051745;28;20798;-76
2021/01/25 00:10:58;;;;;;;20.30;11.97;;;1.40;99.90;;;-0.51;100.00;97567.47;5042612;28;20232;-76
2021/01/25 00:13:44;;;;;;;18.67;11.30;;;1.40;99.90;;;-0.45;100.00;97562.19;5039546;28;20207;-77
2021/01/25 00:16:29;;;;;;;18.13;11.70;;;1.40;99.90;;;-0.42;100.00;97567.16;5053580;28;20214;-76
2021/01/25 00:19:14;;;;;;;19.23;12.43;;;1.60;99.90;;;-0.39;100.00;97567.06;5044337;28;20203;-76
2021/01/25 00:21:59;;;;;;;19.53;11.43;;;1.50;99.90;;;-0.41;100.00;97571.38;5054320;28;20229;-76
2021/01/25 00:24:45;;;;;;;23.90;12.93;;;1.50;99.90;;;-0.46;100.00;97569.84;5051221;28;20208;-76
2021/01/25 00:27:30;;;;;;;19.03;11.33;;;1.50;99.90;;;-0.54;100.00;97587.88;5049205;28;20210;-77
2021/01/25 00:30:18;;;;;;;20.43;12.30;;;1.60;99.90;;;-0.52;100.00;97580.22;5046283;28;20207;-76
2021/01/25 00:33:04;;;;;;;17.97;10.97;;;1.60;99.90;;;-0.49;100.00;97572.50;5044854;28;20223;-76
2021/01/25 00:35:49;;;;;;;21.00;12.73;;;1.60;99.90;;;-0.50;100.00;97579.31;5046345;28;20247;-77
2021/01/25 00:38:34;;;;;;;17.37;11.70;;;1.60;99.90;;;-0.54;100.00;97578.56;5053185;28;20210;-77
2021/01/25 00:41:20;;;;;;;19.80;12.27;;;1.80;99.90;;;-0.52;100.00;97575.97;5055340;28;20315;-76
2021/01/25 00:44:06;;;;;;;20.07;12.07;;;1.60;99.90;;;-0.52;100.00;97578.50;5053341;28;20199;-77
2021/01/25 00:46:50;;;;;;;18.50;11.70;;;1.70;99.90;;;-0.51;100.00;97567.47;5052330;28;20206;-76
2021/01/25 00:49:35;;;;;;;18.57;11.27;;;1.70;99.90;;;-0.50;100.00;97569.16;5052549;28;20214;-77
2021/01/25 00:52:21;;;;;;;20.83;12.50;;;1.70;99.90;;;-0.49;100.00;97567.44;5049869;28;20673;-76
2021/01/25 00:55:10;;;;;;;18.80;12.40;;;1.60;99.90;;;-0.48;100.00;97566.56;5052931;28;20222;-76
2021/01/25 00:57:59;;;;;;;17.17;11.63;;;1.70;99.90;;;-0.48;100.00;97569.91;5053147;28;20199;-77
2021/01/25 01:00:44;;;;;;;18.33;11.63;;;1.70;99.90;;;-0.43;100.00;97565.53;5051180;28;20211;-76
2021/01/25 01:03:29;;;;;;;20.20;12.03;;;1.70;99.90;;;-0.41;100.00;97573.91;5047913;28;20785;-77
2021/01/25 01:06:15;;;;;;;17.83;12.83;;;1.70;99.90;;;-0.39;100.00;97577.22;5048165;28;20225;-76
2021/01/25 01:09:00;;;;;;;19.27;12.80;;;1.70;99.90;;;-0.44;100.00;97576.56;5053264;28;20663;-77
2021/01/25 01:11:45;;;;;;;21.90;15.17;;;1.70;99.90;;;-0.47;100.00;97583.41;5046297;28;20278;-77
2021/01/25 01:14:31;;;;;;;23.23;14.53;;;1.80;99.90;;;-0.48;100.00;97591.94;5046132;28;20242;-77
2021/01/25 01:17:17;;;;;;;22.07;13.37;;;1.70;99.90;;;-0.52;100.00;97593.72;5040922;28;20262;-77
2021/01/25 01:20:03;;;;;;;24.53;16.00;;;1.70;99.90;;;-0.53;100.00;97602.25;5052822;28;20218;-76
2021/01/25 01:22:48;;;;;;;28.93;16.57;;;1.80;99.90;;;-0.55;100.00;97599.75;5055303;28;20372;-75
2021/01/25 01:25:34;;;;;;;24.93;15.20;;;1.80;99.90;;;-0.55;100.00;97601.47;5052387;28;20203;-75
2021/01/25 01:28:19;;;;;;;24.73;15.80;;;1.70;99.90;;;-0.57;100.00;97604.03;5047083;28;20223;-76
2021/01/25 01:31:05;;;;;;;25.90;15.63;;;1.80;99.90;;;-0.58;100.00;97606.63;5051760;28;20298;-76
2021/01/25 01:33:50;;;;;;;25.77;16.07;;;1.80;99.90;;;-0.57;100.00;97613.38;5045367;28;20287;-76
2021/01/25 01:36:35;;;;;;;24.27;16.33;;;1.80;99.90;;;-0.60;100.00;97606.69;5048620;28;20203;-76
2021/01/25 01:39:20;;;;;;;24.70;15.83;;;1.80;99.90;;;-0.60;100.00;97610.94;5052978;28;20777;-77
2021/01/25 01:42:07;;;;;;;24.60;16.03;;;1.70;99.90;;;-0.61;100.00;97611.81;5043346;28;20285;-76
2021/01/25 01:44:52;;;;;;;23.23;15.83;;;1.70;99.90;;;-0.63;100.00;97614.41;5053844;28;20581;-76
2021/01/25 01:47:41;;;;;;;25.23;16.77;;;1.70;99.90;;;-0.63;100.00;97619.47;5055876;28;20287;-77
2021/01/25 01:50:27;;;;;;;26.37;17.27;;;1.70;99.90;;;-0.62;100.00;97625.38;5057557;28;20238;-76
2021/01/25 01:53:11;;;;;;;28.83;17.17;;;1.70;99.90;;;-0.61;100.00;97624.50;5050967;28;20265;-76
2021/01/25 01:55:57;;;;;;;27.37;17.47;;;1.70;99.90;;;-0.61;100.00;97627.03;5052110;28;20222;-77
2021/01/25 01:58:42;;;;;;;30.13;18.23;;;1.70;99.90;;;-0.58;100.00;97629.47;5051607;28;20242;-77
2021/01/25 02:01:28;;;;;;;33.20;21.87;;;1.70;99.90;;;-0.56;100.00;97627.72;5054551;28;20269;-76
2021/01/25 02:04:14;;;;;;;29.50;20.37;;;1.70;99.90;;;-0.51;100.00;97630.13;5046628;28;20620;-76
2021/01/25 02:07:03;;;;;;;32.63;20.03;;;1.70;99.90;;;-0.51;100.00;97623.31;5056499;28;20215;-76
2021/01/25 02:09:50;;;;;;;29.00;19.17;;;1.70;99.90;;;-0.55;100.00;97631.91;5055218;28;20215;-77
2021/01/25 02:12:36;;;;;;;31.57;19.90;;;1.70;99.90;;;-0.52;100.00;97623.38;5048187;28;20246;-77
2021/01/25 02:15:22;;;;;;;31.20;20.10;;;1.70;99.90;;;-0.46;100.00;97626.53;5071555;28;20218;-76
2021/01/25 02:18:08;;;;;;;32.80;20.33;;;1.70;99.90;;;-0.40;100.00;97625.50;5076570;28;20226;-74
2021/01/25 02:20:54;;;;;;;32.63;19.23;;;1.70;99.90;;;-0.41;100.00;97629.75;5065674;28;20319;-76
2021/01/25 02:24:20;;;;;;;27.87;17.73;;;1.70;99.90;;;-0.41;100.00;97624.69;5060149;28;20210;-76
2021/01/25 02:27:30;;;;;;;29.33;19.40;;;1.70;99.90;;;-0.38;100.00;97624.59;5056866;28;20287;-76
2021/01/25 02:30:16;;;;;;;28.00;19.00;;;1.70;99.90;;;-0.38;100.00;97631.38;5048277;28;20724;-76
2021/01/25 02:33:02;;;;;;;34.37;20.53;;;1.70;99.90;;;-0.37;100.00;97635.56;5049317;28;20285;-77
2021/01/25 02:35:49;;;;;;;30.80;18.87;;;1.70;99.90;;;-0.33;100.00;97631.22;5047307;28;20234;-77
2021/01/25 02:38:38;;;;;;;30.53;19.67;;;1.70;99.90;;;-0.34;100.00;97639.72;5052412;28;20225;-76
2021/01/25 02:41:27;;;;;;;31.40;17.90;;;1.80;99.90;;;-0.29;100.00;97637.88;5059490;28;20269;-76
2021/01/25 02:44:15;;;;;;;27.77;18.10;;;1.70;99.90;;;-0.28;100.00;97635.28;5052264;28;20284;-76
2021/01/25 02:47:00;;;;;;;29.10;18.80;;;1.70;99.90;;;-0.29;100.00;97628.53;5052610;28;20215;-76
2021/01/25 02:49:46;;;;;;;32.33;18.77;;;1.70;99.90;;;-0.28;100.00;97639.50;5057153;28;20235;-76
2021/01/25 02:52:31;;;;;;;30.40;18.93;;;1.70;99.90;;;-0.26;100.00;97647.91;5058319;28;20714;-76
2021/01/25 02:55:17;;;;;;;31.87;19.13;;;1.70;99.90;;;-0.30;100.00;97652.25;5048078;28;20222;-77
2021/01/25 02:58:05;;;;;;;31.33;20.23;;;1.80;99.90;;;-0.30;100.00;97646.34;5059153;28;20741;-76
2021/01/25 03:00:53;;;;;;;38.57;22.77;;;1.80;99.90;;;-0.42;100.00;97655.22;5056604;28;20231;-76
2021/01/25 03:03:41;;;;;;;32.00;20.43;;;1.80;99.90;;;-0.53;100.00;97665.72;5052063;28;20290;-77
2021/01/25 03:06:26;;;;;;;35.40;22.23;;;1.80;99.90;;;-0.52;100.00;97664.81;5057111;28;20202;-77
2021/01/25 03:09:11;;;;;;;37.07;21.33;;;1.80;99.90;;;-0.54;100.00;97671.66;5056713;28;20207;-77
2021/01/25 03:11:57;;;;;;;30.30;20.00;;;1.80;99.90;;;-0.51;100.00;97675.81;5056550;28;20238;-76
2021/01/25 03:14:44;;;;;;;32.27;21.40;;;1.80;99.90;;;-0.50;100.00;97670.69;5048220;28;20226;-77
2021/01/25 03:17:30;;;;;;;36.77;21.33;;;1.80;99.90;;;-0.52;100.00;97674.16;5050616;28;20266;-77
2021/01/25 03:20:15;;;;;;;36.03;22.37;;;1.80;99.90;;;-0.54;100.00;97680.09;5051629;28;20218;-76
2021/01/25 03:23:00;;;;;;;38.63;24.23;;;1.80;99.90;;;-0.55;100.00;97673.38;5057400;28;20241;-78
2021/01/25 03:25:46;;;;;;;38.13;24.17;;;1.80;99.90;;;-0.55;100.00;97682.69;5056029;28;20257;-76
2021/01/25 03:28:31;;;;;;;35.13;23.50;;;1.80;99.90;;;-0.57;100.00;97694.63;5046454;28;20574;-77
2021/01/25 03:31:17;;;;;;;37.50;23.53;;;1.80;99.90;;;-0.57;100.00;97697.16;5042855;28;20253;-76
2021/01/25 03:34:04;;;;;;;37.90;24.17;;;1.80;99.90;;;-0.57;100.00;97699.69;5051921;28;20258;-77
2021/01/25 03:36:49;;;;;;;39.00;22.23;;;1.80;99.90;;;-0.55;100.00;97697.91;5046777;28;20277;-77
2021/01/25 03:39:34;;;;;;;37.23;22.90;;;1.80;99.90;;;-0.56;100.00;97703.88;5047115;28;20246;-76
2021/01/25 03:42:19;;;;;;;31.43;21.90;;;1.80;99.90;;;-0.55;100.00;97703.00;5050491;28;20262;-76
2021/01/25 03:45:06;;;;;;;36.30;22.20;;;1.80;99.90;;;-0.55;100.00;97713.16;5055524;28;20447;-77
2021/01/25 03:47:52;;;;;;;33.67;21.80;;;1.80;99.90;;;-0.62;100.00;97719.28;5054618;28;20231;-77
2021/01/25 03:50:38;;;;;;;35.33;22.73;;;1.80;99.90;;;-0.65;100.00;97725.31;5054178;28;20257;-75
2021/01/25 03:53:23;;;;;;;33.77;20.43;;;1.80;99.90;;;-0.63;100.00;97721.00;5049636;28;20225;-77
2021/01/25 03:56:09;;;;;;;35.87;23.10;;;1.80;99.90;;;-0.63;100.00;97732.88;5047058;28;20227;-76
2021/01/25 03:58:54;;;;;;;32.57;20.93;;;1.80;99.90;;;-0.67;100.00;97736.38;5047804;28;20211;-76
2021/01/25 04:01:39;;;;;;;31.20;20.83;;;1.80;99.90;;;-0.65;100.00;97742.22;5045509;28;20315;-76
2021/01/25 04:04:24;;;;;;;34.20;21.77;;;1.80;99.90;;;-0.72;100.00;97742.44;5052828;28;20249;-77
2021/01/25 04:07:11;;;;;;;31.80;20.00;;;1.80;99.90;;;-0.69;100.00;97753.34;5046590;28;20611;-76
2021/01/25 04:09:56;;;;;;;37.20;22.50;;;1.80;99.90;;;-0.69;100.00;97758.44;5051466;28;20215;-77
2021/01/25 04:12:41;;;;;;;36.37;23.03;;;1.80;99.90;;;-0.69;100.00;97763.50;5057692;28;20262;-77
2021/01/25 04:15:27;;;;;;;31.53;21.33;;;1.80;99.90;;;-0.69;100.00;97768.56;5045545;28;20231;-76
2021/01/25 04:18:12;;;;;;;37.03;21.60;;;1.90;99.90;;;-0.69;100.00;97779.59;5056800;28;20253;-76
2021/01/25 04:20:58;;;;;;;28.87;20.47;;;1.80;99.90;;;-0.67;100.00;97789.69;5072139;28;20253;-75
2021/01/25 04:23:44;;;;;;;31.67;19.47;;;1.80;99.90;;;-0.67;100.00;97789.69;5066979;28;20194;-76
2021/01/25 04:26:29;;;;;;;31.93;20.83;;;1.80;99.90;;;-0.75;100.00;97795.00;5072733;28;20206;-75
2021/01/25 04:29:14;;;;;;;30.27;19.73;;;1.80;99.90;;;-0.78;100.00;97797.63;5048381;28;20202;-76
2021/01/25 04:32:00;;;;;;;30.73;19.77;;;1.80;99.90;;;-0.88;100.00;97812.25;5038983;28;20243;-76
2021/01/25 04:34:45;;;;;;;31.27;20.43;;;1.80;99.90;;;-1.00;100.00;97822.78;5047448;28;20743;-76
2021/01/25 04:37:30;;;;;;;31.23;20.47;;;1.80;99.90;;;-1.08;100.00;97828.88;5045908;28;20283;-77
2021/01/25 04:40:17;;;;;;;35.20;21.13;;;1.80;99.90;;;-1.13;100.00;97843.38;5051556;28;20206;-76
2021/01/25 04:43:03;;;;;;;27.17;17.43;;;1.80;99.90;;;-1.26;100.00;97850.47;5057567;28;20218;-78
2021/01/25 04:45:48;;;;;;;31.53;19.97;;;1.80;99.90;;;-1.32;100.00;97855.69;5053275;28;20289;-77
2021/01/25 04:48:38;;;;;;;30.50;19.30;;;1.80;99.90;;;-1.39;100.00;97864.31;5053792;28;20203;-77
2021/01/25 04:51:26;;;;;;;28.07;18.03;;;1.80;99.90;;;-1.52;100.00;97886.63;5046584;28;20246;-76
2021/01/25 04:54:14;;;;;;;31.73;19.17;;;1.70;99.90;;;-1.54;100.00;97882.47;5045309;28;20714;-76
2021/01/25 04:57:03;;;;;;;28.43;18.67;;;1.70;99.90;;;-1.57;100.00;97888.44;5054688;28;20241;-77
2021/01/25 04:59:51;;;;;;;31.03;18.73;;;1.70;99.90;;;-1.61;100.00;97886.84;5056958;28;20245;-77
2021/01/25 05:02:37;;;;;;;26.40;19.13;;;1.70;99.90;;;-1.69;100.00;97898.88;5047356;28;20223;-76
2021/01/25 05:05:23;;;;;;;26.30;18.43;;;1.70;99.90;;;-1.80;100.00;97909.22;5055389;28;20253;-76
2021/01/25 05:08:08;;;;;;;30.67;19.47;;;1.60;99.90;;;-1.88;100.00;97924.63;5045714;28;20241;-76
2021/01/25 05:10:53;;;;;;;31.40;19.57;;;1.60;99.90;;;-1.91;100.00;97926.41;5052914;28;20357;-76
2021/01/25 05:13:40;;;;;;;29.17;19.07;;;1.60;99.90;;;-2.03;100.00;97930.03;5056270;28;20253;-76
2021/01/25 05:16:25;;;;;;;29.90;19.57;;;1.50;99.90;;;-1.99;100.00;97940.06;5049272;28;20227;-76
2021/01/25 05:19:13;;;;;;;33.50;18.93;;;1.60;99.90;;;-1.92;100.00;97943.28;5048800;28;20210;-76
2021/01/25 05:21:58;;;;;;;32.50;19.53;;;1.50;99.90;;;-2.06;100.00;97958.78;5053602;28;20239;-76
2021/01/25 05:24:48;;;;;;;30.80;18.97;;;1.40;99.90;;;-2.10;100.00;97963.94;5042655;28;20253;-76
2021/01/25 05:27:33;;;;;;;32.67;20.80;;;1.50;99.90;;;-2.02;100.00;97962.06;5039825;28;20214;-75
2021/01/25 05:30:21;;;;;;;28.37;19.23;;;1.50;99.90;;;-2.07;100.00;97979.06;5044044;28;20212;-76
2021/01/25 05:33:06;;;;;;;26.87;18.50;;;1.40;99.90;;;-2.40;100.00;97999.16;5039936;28;20214;-76
2021/01/25 05:35:55;;;;;;;27.63;17.73;;;1.40;99.90;;;-2.59;100.00;98004.53;5043506;28;20232;-75
2021/01/25 05:38:40;;;;;;;29.70;19.00;;;1.40;99.90;;;-2.61;100.00;98016.41;5048980;28;20294;-76
2021/01/25 05:41:26;;;;;;;26.57;18.57;;;1.30;99.90;;;-2.56;100.00;98013.78;5054602;28;20600;-76
2021/01/25 05:44:14;;;;;;;26.80;18.03;;;1.40;99.90;;;-2.78;100.00;98020.91;5042318;28;20211;-77
2021/01/25 05:47:05;;;;;;;28.77;19.10;;;1.20;99.90;;;-2.94;100.00;98023.69;5052673;28;20695;-76
2021/01/25 05:49:50;;;;;;;28.90;17.57;;;1.20;99.90;;;-3.08;100.00;98035.75;5052152;28;20198;-75
2021/01/25 05:52:42;;;;;;;27.97;16.90;;;1.10;99.90;;;-3.10;100.00;98037.44;5055573;28;20253;-76
2021/01/25 05:55:28;;;;;;;28.50;18.40;;;1.00;99.90;;;-3.04;100.00;98037.34;5042646;28;20207;-76
2021/01/25 05:58:13;;;;;;;27.10;17.23;;;1.00;99.90;;;-3.06;100.00;98046.66;5051706;28;20635;-76
2021/01/25 06:01:00;;;;;;;30.40;18.17;;;0.90;99.90;;;-2.93;100.00;98048.13;5051992;28;20235;-76
2021/01/25 06:03:47;;;;;;;27.73;18.30;;;0.80;99.90;;;-3.15;100.00;98067.03;5054970;28;20234;-76
2021/01/25 06:06:34;;;;;;;28.57;18.67;;;0.70;99.90;;;-3.17;100.00;98070.41;5050864;28;20239;-78
2021/01/25 06:09:27;;;;;;;31.23;18.80;;;0.60;99.90;;;-3.24;100.00;98073.88;5049823;28;20211;-75
2021/01/25 06:12:12;;;;;;;28.37;18.60;;;0.50;99.90;;;-3.22;100.00;98078.91;5048519;28;20315;-77
2021/01/25 06:15:04;;;;;;;29.67;18.53;;;0.40;99.90;;;-3.31;100.00;98087.44;5040332;28;20219;-76
2021/01/25 06:17:49;;;;;;;30.60;19.27;;;0.40;99.90;;;-3.30;100.00;98089.13;5052936;28;20730;-76
2021/01/25 06:20:37;;;;;;;31.80;19.63;;;0.30;99.90;;;-3.32;100.00;98100.97;5050170;28;20266;-76
2021/01/25 06:23:25;;;;;;;30.10;19.17;;;0.20;99.90;;;-3.40;100.00;98107.81;5045442;28;20246;-77
2021/01/25 06:26:10;;;;;;;30.53;19.30;;;0.20;99.90;;;-3.46;100.00;98112.94;5053643;28;20250;-76
2021/01/25 06:29:00;;;;;;;31.67;20.90;;;0.10;99.90;;;-3.43;100.00;98117.97;5052955;28;20250;-75
2021/01/25 06:31:52;;;;;;;31.43;19.27;;;0.10;99.90;;;-3.40;100.00;98122.97;5056181;28;20242;-75
2021/01/25 06:34:37;;;;;;;31.93;20.33;;;0.10;99.90;;;-3.20;100.00;98115.94;5050419;28;20203;-76
2021/01/25 06:37:28;;;;;;;31.53;19.07;;;0.00;99.90;;;-3.36;100.00;98122.06;5055896;28;20210;-76
2021/01/25 06:40:15;;;;;;;32.23;19.27;;;0.00;99.90;;;-3.46;100.00;98139.03;5051621;28;20716;-76
2021/01/25 06:43:09;;;;;;;31.43;20.07;;;-0.10;99.90;;;-3.50;100.00;98136.56;5053596;28;20227;-76
2021/01/25 06:45:58;;;;;;;31.73;19.37;;;-0.10;99.90;;;-3.41;100.00;98144.88;5040485;28;20203;-76
2021/01/25 06:48:48;;;;;;;41.90;21.17;;;-0.10;99.90;;;-3.28;100.00;98155.66;5047590;28;20211;-76
2021/01/25 06:51:40;;;;;;;36.67;21.40;;;-0.20;99.90;;;-3.47;100.00;98162.66;5048376;28;20218;-76
2021/01/25 06:54:27;;;;;;;32.53;20.13;;;-0.20;99.90;;;-3.51;100.00;98171.13;5055872;28;20199;-76
2021/01/25 06:57:22;;;;;;;28.50;18.90;;;-0.20;99.90;;;-3.63;100.00;98186.41;5043405;28;20261;-76
2021/01/25 07:00:12;;;;;;;33.50;21.53;;;-0.20;99.90;;;-3.38;100.00;98171.78;5048548;28;20696;-75
2021/01/25 07:02:59;;;;;;;29.63;19.03;;;-0.30;99.90;;;-3.30;100.00;98177.59;5046275;28;20258;-76
2021/01/25 07:05:44;;;;;;;32.00;20.17;;;-0.30;99.90;;;-3.56;100.00;98182.97;5044204;28;20245;-77
2021/01/25 07:08:29;;;;;;;35.83;20.63;;;-0.30;99.90;;;-3.67;100.00;98197.41;5038302;28;20207;-75
2021/01/25 07:11:16;;;;;;;33.97;20.77;;;-0.30;99.90;;;-3.70;100.00;98198.28;5042239;28;20230;-76
2021/01/25 07:14:02;;;;;;;35.87;21.57;;;-0.40;99.90;;;-3.30;100.00;98185.19;5053035;28;20230;-75
2021/01/25 07:16:49;;;;;;;32.30;21.73;;;-0.40;99.90;;;-3.59;100.00;98204.06;5046463;28;20254;-76
2021/01/25 07:19:34;;;;;;;30.97;20.70;;;-0.40;99.90;;;-3.76;100.00;98223.59;5048131;28;20291;-75
2021/01/25 07:22:22;;;;;;;29.53;18.70;;;-0.40;99.90;;;-3.95;100.00;98235.56;5051992;28;20266;-75
2021/01/25 07:25:09;;;;;;;28.63;18.70;;;-0.40;99.90;;;-4.07;100.00;98244.09;5052532;28;20245;-76
2021/01/25 07:28:03;;;;;;;31.43;18.90;;;-0.50;99.90;;;-4.27;100.00;98255.16;5040042;28;20219;-76
2021/01/25 07:30:49;;;;;;;29.87;17.97;;;-0.50;99.90;;;-4.27;100.00;98264.44;5044720;28;20329;-75
2021/01/25 07:33:35;;;;;;;31.90;18.83;;;-0.50;99.90;;;-4.26;100.00;98269.47;5051722;28;20206;-75
2021/01/25 07:36:22;;;;;;;32.27;19.63;;;-0.50;99.90;;;-4.28;100.00;98277.88;5040637;28;20243;-74
2021/01/25 07:39:09;;;;;;;30.10;18.40;;;-0.60;99.90;;;-4.07;100.00;98275.22;5040285;28;20210;-76
2021/01/25 07:41:56;;;;;;;32.53;19.17;;;-0.60;99.90;;;-4.01;100.00;98274.31;5048058;28;20242;-76
2021/01/25 07:44:45;;;;;;;32.17;19.73;;;-0.60;99.90;;;-4.00;100.00;98295.34;5040774;28;20684;-75
2021/01/25 07:47:31;;;;;;;27.23;19.00;;;-0.60;99.90;;;-3.82;100.00;98289.31;5032658;28;20215;-75
2021/01/25 07:50:18;;;;;;;28.50;19.10;;;-0.60;99.90;;;-3.49;100.00;98285.63;5048543;28;20271;-75
2021/01/25 07:53:05;;;;;;;38.47;21.33;;;-0.70;99.90;;;-3.16;100.00;98276.00;5047851;28;20218;-75
2021/01/25 07:55:50;;;;;;;33.23;22.30;;;-0.70;99.90;;;-3.11;100.00;98275.97;5038631;28;20227;-77
2021/01/25 07:58:36;;;;;;;34.50;23.20;;;-0.60;99.90;;;-3.17;100.00;98275.19;5043740;28;20306;-77
2021/01/25 08:01:28;;;;;;;37.03;22.17;;;-0.60;99.90;;;-3.31;100.00;98289.66;5051918;28;20252;-77
2021/01/25 08:04:17;;;;;;;41.37;22.80;;;-0.60;99.90;;;-3.56;100.00;98304.22;5043072;28;20210;-76
2021/01/25 08:07:03;;;;;;;32.00;21.73;;;-0.60;99.90;;;-3.61;100.00;98306.81;5043410;28;20203;-75
2021/01/25 08:09:51;;;;;;;34.03;22.20;;;-0.50;99.90;;;-3.54;100.00;98303.38;5041347;28;20212;-76
2021/01/25 08:12:37;;;;;;;31.67;20.83;;;-0.50;99.90;;;-3.58;100.00;98319.41;5039134;28;20266;-76
2021/01/25 08:15:30;;;;;;;31.33;21.20;;;-0.50;99.90;;;-3.60;100.00;98318.59;5041810;28;20586;-76
2021/01/25 08:18:16;;;;;;;32.83;20.80;;;-0.50;99.90;;;-3.50;100.00;98323.56;5040701;28;20226;-75
2021/01/25 08:21:06;;;;;;;34.20;20.83;;;-0.50;99.90;;;-3.68;100.00;98332.16;5045497;28;20702;-74
2021/01/25 08:23:54;;;;;;;33.00;19.50;;;-0.50;99.90;;;-3.73;100.00;98335.53;5037408;28;20215;-74
2021/01/25 08:26:40;;;;;;;33.87;21.50;;;-0.40;99.90;;;-3.78;100.00;98338.94;5039133;28;20289;-74
2021/01/25 08:29:28;;;;;;;33.47;20.77;;;-0.50;99.90;;;-3.64;100.00;98341.38;5041096;28;20342;-74
2021/01/25 08:32:24;;;;;;;34.03;21.37;;;-0.40;99.90;;;-3.41;100.00;98338.63;5037078;28;20708;-74
2021/01/25 08:35:11;;;;;;;34.93;20.67;;;-0.50;99.90;;;-3.44;100.00;98336.13;5037037;28;20281;-74
2021/01/25 08:38:23;;;;;;;34.77;20.97;;;-0.50;99.90;;;-3.38;100.00;98341.13;5040382;28;20234;-74
2021/01/25 08:41:24;;;;;;;34.90;20.73;;;-0.50;99.90;;;-3.49;100.00;98350.50;5039666;28;20242;-74
2021/01/25 08:44:16;;;;;;;35.43;21.50;;;-0.50;99.90;;;-3.38;100.00;98351.22;5033237;28;20212;-74
2021/01/25 08:47:09;;;;;;;35.67;22.93;;;-0.40;99.90;;;-2.85;100.00;98328.75;5038560;28;20321;-74
2021/01/25 08:49:56;;;;;;;39.83;24.27;;;-0.50;99.90;;;-1.86;100.00;98282.66;5037251;28;21006;-74
2021/01/25 08:52:44;;;;;;;46.30;27.57;;;-0.50;99.90;;;-1.42;100.00;98263.31;5039571;28;20230;-74
2021/01/25 08:55:39;;;;;;;48.63;29.00;;;-0.50;99.90;;;-1.84;100.00;98296.13;5034863;28;20214;-74
2021/01/25 08:58:31;;;;;;;56.07;30.27;;;-0.40;99.90;;;-2.20;100.00;98316.09;5037812;28;20202;-74
2021/01/25 09:01:28;;;;;;;56.23;32.47;;;-0.40;99.90;;;-1.29;100.00;98278.28;5036296;28;20236;-74
2021/01/25 09:04:14;;;;;;;73.50;38.23;;;-0.30;99.90;;;-0.33;100.00;98222.97;5034804;28;20289;-74
2021/01/25 09:06:59;;;;;;;87.30;45.30;;;-0.30;99.90;;;0.16;100.00;98198.88;5032460;28;20583;-74
2021/01/25 09:09:46;;;;;;;97.90;48.80;;;-0.30;99.90;;;0.54;100.00;98184.31;5038873;28;20203;-74
2021/01/25 09:12:31;;;;;;;121.57;55.63;;;-0.20;99.90;;;1.12;100.00;98155.50;5039033;28;20265;-74
2021/01/25 09:15:17;;;;;;;162.13;68.17;;;-0.10;99.90;;;1.75;100.00;98122.94;5041833;28;20238;-73
2021/01/25 09:18:02;;;;;;;191.30;80.53;;;0.20;99.90;;;2.23;100.00;98086.44;5037204;28;20599;-74
2021/01/25 09:20:47;;;;;;;190.03;80.97;;;0.40;99.90;;;2.77;100.00;98063.19;5043230;28;20217;-74
2021/01/25 09:23:33;;;;;;;218.67;87.73;;;0.70;99.90;;;3.08;100.00;98060.25;5042578;28;20694;-75
2021/01/25 09:26:18;;;;;;;228.60;95.63;;;0.90;99.90;;;3.36;100.00;98092.34;5042005;28;20260;-73
2021/01/25 09:29:04;;;;;;;238.67;97.03;;;1.30;99.90;;;3.53;100.00;98117.25;5037617;28;20741;-74
2021/01/25 09:31:49;;;;;;;219.87;94.77;;;1.50;99.90;;;3.69;100.00;98107.19;5037138;28;20250;-74
2021/01/25 09:34:34;;;;;;;234.87;97.40;;;1.70;99.90;;;4.24;100.00;98073.31;5034236;28;20561;-73
2021/01/25 09:37:19;;;;;;;216.73;96.57;;;2.00;99.90;;;4.66;100.00;98049.22;5035636;28;20218;-75
2021/01/25 09:40:09;;;;;;;201.60;96.30;;;2.30;99.90;;;4.73;100.00;98052.34;5037240;28;20256;-74
2021/01/25 09:42:54;;;;;;;165.03;80.60;;;2.60;99.90;;;4.73;100.00;98055.72;5049916;28;20299;-74
2021/01/25 09:45:40;;;;;;;123.93;64.83;;;3.00;99.90;;;5.05;100.00;98040.56;5058025;28;20215;-74
2021/01/25 09:48:25;;;;;;;94.87;54.93;;;3.30;99.90;;;5.72;100.00;98011.66;5065305;28;20199;-74
2021/01/25 09:51:10;;;;;;;59.00;39.27;;;3.70;99.90;;;5.77;100.00;98002.84;5059581;28;20226;-74
2021/01/25 09:53:55;;;;;;;35.23;23.57;;;4.20;99.90;;;5.92;100.00;98000.38;5035515;28;20219;-75
2021/01/25 09:56:42;;;;;;;32.20;22.60;;;4.70;99.90;;;6.29;100.00;97981.31;5034588;28;20222;-75
2021/01/25 09:59:27;;;;;;;28.60;20.70;;;5.30;99.90;;;6.74;100.00;97952.34;5036305;28;20207;-75
2021/01/25 10:02:12;;;;;;;23.57;17.93;;;5.90;99.90;;;6.76;100.00;97958.22;5037338;28;20273;-75
2021/01/25 10:04:57;;;;;;;26.27;19.00;;;6.50;99.90;;;7.35;100.00;97925.69;5034772;28;20258;-75
2021/01/25 10:07:42;;;;;;;23.33;16.70;;;7.10;99.90;;;7.14;100.00;97938.03;5038804;28;20215;-75
2021/01/25 10:10:28;;;;;;;25.03;17.97;;;7.70;99.90;;;7.32;100.00;97927.59;5037858;28;20211;-74
2021/01/25 10:13:14;;;;;;;23.53;16.90;;;8.30;99.90;;;7.44;100.00;97905.47;5035897;28;20207;-75
2021/01/25 10:15:59;;;;;;;22.47;16.40;;;9.00;99.90;;;7.47;100.00;97895.84;5034116;28;20223;-75
2021/01/25 10:18:45;;;;;;;20.37;16.47;;;9.50;99.90;;;7.68;100.00;97891.13;5032726;28;20350;-75
2021/01/25 10:21:31;;;;;;;20.37;14.93;;;10.10;99.90;;;7.84;100.00;97872.16;5035979;28;20235;-75
2021/01/25 10:24:16;;;;;;;20.70;16.13;;;10.60;99.90;;;7.94;100.00;97854.41;5028874;28;20281;-75
2021/01/25 10:27:01;;;;;;;19.17;15.53;;;11.20;99.90;;;7.94;100.00;97846.69;5034832;28;20203;-75
2021/01/25 10:29:47;;;;;;;22.10;16.23;;;11.70;99.90;;;8.89;100.00;97783.03;5050056;28;20231;-74
2021/01/25 10:32:32;;;;;;;21.30;15.00;;;12.20;99.90;;;8.39;100.00;97795.75;5045141;28;20258;-74
2021/01/25 10:35:19;;;;;;;22.10;16.03;;;12.80;99.90;;;8.71;100.00;97775.59;5049547;28;20222;-75
2021/01/25 10:38:05;;;;;;;19.27;14.17;;;13.20;99.90;;;8.98;100.00;97751.44;5046646;28;20556;-75
2021/01/25 10:40:50;;;;;;;18.87;15.23;;;13.70;99.90;;;9.03;100.00;97740.81;5034930;28;20206;-75
2021/01/25 10:43:36;;;;;;;17.27;13.60;;;14.20;99.90;;;9.01;100.00;97728.03;5042659;28;20210;-75
2021/01/25 10:46:22;;;;;;;17.33;13.47;;;14.60;99.90;;;9.11;100.00;97715.34;5042751;28;20203;-75
2021/01/25 10:49:07;;;;;;;18.30;15.20;;;15.00;99.90;;;9.23;100.00;97703.34;5032361;28;20707;-75
2021/01/25 10:51:52;;;;;;;18.43;14.97;;;15.50;99.90;;;10.11;100.00;97622.94;5033492;28;20238;-75
2021/01/25 10:54:37;;;;;;;17.60;15.07;;;15.90;99.90;;;10.09;100.00;97611.06;5033426;28;20254;-75
2021/01/25 10:57:22;;;;;;;19.10;15.30;;;16.40;98.10;;;10.11;100.00;97596.25;5036830;28;20277;-75
2021/01/25 11:00:11;;;;;;;19.23;14.23;;;16.80;95.60;;;9.98;100.00;97597.19;5047195;28;20219;-75
2021/01/25 11:02:57;;;;;;;17.00;12.77;;;17.20;94.00;;;10.58;100.00;97565.16;5030943;28;20372;-75
2021/01/25 11:05:42;;;;;;;15.83;14.13;;;17.70;91.80;;;10.12;100.00;97583.22;5046847;28;20227;-75
2021/01/25 11:08:28;;;;;;;16.90;14.37;;;18.10;87.60;;;10.58;100.00;97547.06;5038194;28;20256;-75
2021/01/25 11:11:13;;;;;;;19.40;15.30;;;18.50;85.50;;;10.64;100.00;97536.25;5042393;28;20222;-76
2021/01/25 11:13:58;;;;;;;14.80;13.03;;;18.90;83.30;;;10.84;100.00;97514.78;5045896;28;20207;-76
2021/01/25 11:16:43;;;;;;;16.20;12.77;;;19.30;83.90;;;10.59;100.00;97535.78;5051210;28;20238;-76
2021/01/25 11:19:29;;;;;;;15.23;13.00;;;19.70;78.30;;;10.98;100.00;97505.09;5048088;28;20231;-76
2021/01/25 11:22:15;;;;;;;15.23;12.57;;;20.10;75.60;;;11.40;100.00;97468.91;5049129;28;20606;-75
2021/01/25 11:25:00;;;;;;;15.23;12.63;;;20.50;75.90;;;11.68;100.00;97449.28;5041120;28;20277;-76
2021/01/25 11:27:45;;;;;;;16.43;12.70;;;21.00;71.90;;;11.78;100.00;97470.06;5044432;28;20242;-76